sensor_id;sensor_type;location;lat;lon;timestamp;pressure;altitude;pressure_sealevel;temperature;humidity
77263;BME280;66373;52.334;4.806;2023-03-04T00:00:59;102580.72;;;16.83;47.21
77263;BME280;66373;52.334;4.806;2023-03-04T00:03:28;102587.69;;;16.84;47.21
77263;BME280;66373;52.334;4.806;2023-03-04T00:05:55;102584.19;;;16.82;47.16
77263;BME280;66373;52.334;4.806;2023-03-04T00:08:23;102653.94;;;17.19;47.13
77263;BME280;66373;52.334;4.806;2023-03-04T00:10:50;102517.84;;;16.43;47.34
77263;BME280;66373;52.334;4.806;2023-03-04T00:13:18;102587.59;;;16.78;47.39
77263;BME280;66373;52.334;4.806;2023-03-04T00:15:47;102602.44;;;16.86;47.40
77263;BME280;66373;52.334;4.806;2023-03-04T00:18:15;102652.09;;;17.09;47.07
77263;BME280;66373;52.334;4.806;2023-03-04T00:20:47;102655.63;;;17.17;47.00
77263;BME280;66373;52.334;4.806;2023-03-04T00:23:15;102662.59;;;17.20;47.08
77263;BME280;66373;52.334;4.806;2023-03-04T00:25:44;102620.72;;;16.95;47.13
77263;BME280;66373;52.334;4.806;2023-03-04T00:28:11;102627.72;;;17.00;47.12
77263;BME280;66373;52.334;4.806;2023-03-04T00:30:39;102662.59;;;17.18;46.72
77263;BME280;66373;52.334;4.806;2023-03-04T00:33:11;102658.25;;;17.19;46.84
77263;BME280;66373;52.334;4.806;2023-03-04T00:35:39;102624.13;;;16.90;46.94
77263;BME280;66373;52.334;4.806;2023-03-04T00:38:08;102612.00;;;16.89;46.60
77263;BME280;66373;52.334;4.806;2023-03-04T00:40:36;102611.13;;;16.90;46.80
77263;BME280;66373;52.334;4.806;2023-03-04T00:43:07;102606.75;;;16.86;46.80
77263;BME280;66373;52.334;4.806;2023-03-04T00:45:39;102598.94;;;16.83;46.81
77263;BME280;66373;52.334;4.806;2023-03-04T00:48:06;102617.25;;;16.95;46.63
77263;BME280;66373;52.334;4.806;2023-03-04T00:50:33;102602.44;;;16.89;46.56
77263;BME280;66373;52.334;4.806;2023-03-04T00:53:04;102649.56;;;17.14;46.53
77263;BME280;66373;52.334;4.806;2023-03-04T00:55:46;102530.81;;;16.40;46.72
77263;BME280;66373;52.334;4.806;2023-03-04T00:58:17;102648.56;;;17.04;46.73
77263;BME280;66373;52.334;4.806;2023-03-04T01:00:46;102571.72;;;16.56;46.63
77263;BME280;66373;52.334;4.806;2023-03-04T01:03:14;102634.56;;;16.94;46.46
77263;BME280;66373;52.334;4.806;2023-03-04T01:05:49;102534.19;;;16.33;46.52
77263;BME280;66373;52.334;4.806;2023-03-04T01:08:18;102641.53;;;16.97;46.65
77263;BME280;66373;52.334;4.806;2023-03-04T01:10:50;102617.16;;;16.84;46.39
77263;BME280;66373;52.334;4.806;2023-03-04T01:13:17;102650.28;;;17.02;46.30
77263;BME280;66373;52.334;4.806;2023-03-04T01:15:45;102604.97;;;16.80;46.60
77263;BME280;66373;52.334;4.806;2023-03-04T01:18:12;102632.88;;;16.98;46.29
77263;BME280;66373;52.334;4.806;2023-03-04T01:20:40;102604.94;;;16.79;46.43
77263;BME280;66373;52.334;4.806;2023-03-04T01:23:07;102650.34;;;17.08;46.56
77263;BME280;66373;52.334;4.806;2023-03-04T01:25:37;102591.00;;;16.72;46.33
77263;BME280;66373;52.334;4.806;2023-03-04T01:28:06;102590.16;;;16.75;45.94
77263;BME280;66373;52.334;4.806;2023-03-04T01:30:34;102638.19;;;17.06;46.20
77263;BME280;66373;52.334;4.806;2023-03-04T01:33:01;102571.00;;;16.67;46.27
77263;BME280;66373;52.334;4.806;2023-03-04T01:35:28;102546.53;;;16.51;46.09
77263;BME280;66373;52.334;4.806;2023-03-04T01:37:55;102602.41;;;16.83;46.14
77263;BME280;66373;52.334;4.806;2023-03-04T01:40:23;102627.72;;;17.01;46.01
77263;BME280;66373;52.334;4.806;2023-03-04T01:42:50;102530.00;;;16.44;46.23
77263;BME280;66373;52.334;4.806;2023-03-04T01:45:19;102612.94;;;16.97;46.24
77263;BME280;66373;52.334;4.806;2023-03-04T01:47:48;102508.25;;;16.35;45.98
77263;BME280;66373;52.334;4.806;2023-03-04T01:50:21;102613.88;;;17.02;46.01
77263;BME280;66373;52.334;4.806;2023-03-04T01:52:50;102564.06;;;16.66;46.15
77263;BME280;66373;52.334;4.806;2023-03-04T01:55:18;102541.41;;;16.55;46.07
77263;BME280;66373;52.334;4.806;2023-03-04T01:57:46;102576.34;;;16.77;46.04
77263;BME280;66373;52.334;4.806;2023-03-04T02:00:21;102592.03;;;16.86;45.89
77263;BME280;66373;52.334;4.806;2023-03-04T02:02:51;102595.53;;;16.88;45.98
77263;BME280;66373;52.334;4.806;2023-03-04T02:05:20;102516.16;;;16.45;45.87
77263;BME280;66373;52.334;4.806;2023-03-04T02:07:50;102575.53;;;16.83;46.12
77263;BME280;66373;52.334;4.806;2023-03-04T02:10:18;102585.13;;;16.90;45.74
77263;BME280;66373;52.334;4.806;2023-03-04T02:12:45;102538.88;;;16.60;46.01
77263;BME280;66373;52.334;4.806;2023-03-04T02:15:12;102488.34;;;16.35;45.97
77263;BME280;66373;52.334;4.806;2023-03-04T02:17:42;102548.53;;;16.70;45.94
77263;BME280;66373;52.334;4.806;2023-03-04T02:20:17;102470.03;;;16.26;45.96
77263;BME280;66373;52.334;4.806;2023-03-04T02:22:54;102435.25;;;16.10;45.87
77263;BME280;66373;52.334;4.806;2023-03-04T02:25:32;102564.31;;;16.85;45.85
77263;BME280;66373;52.334;4.806;2023-03-04T02:28:02;102571.25;;;16.86;45.85
77263;BME280;66373;52.334;4.806;2023-03-04T02:30:30;102497.16;;;16.49;45.91
77263;BME280;66373;52.334;4.806;2023-03-04T02:32:58;102438.81;;;16.21;45.81
77263;BME280;66373;52.334;4.806;2023-03-04T02:35:25;102460.63;;;16.34;45.98
77263;BME280;66373;52.334;4.806;2023-03-04T02:37:53;102539.16;;;16.83;45.84
77263;BME280;66373;52.334;4.806;2023-03-04T02:40:23;102554.78;;;16.86;45.85
77263;BME280;66373;52.334;4.806;2023-03-04T02:42:52;102535.53;;;16.72;45.94
77263;BME280;66373;52.334;4.806;2023-03-04T02:45:37;102427.56;;;16.21;45.80
77263;BME280;66373;52.334;4.806;2023-03-04T02:48:06;102441.47;;;16.24;45.55
77263;BME280;66373;52.334;4.806;2023-03-04T02:50:37;102533.88;;;16.75;45.99
77263;BME280;66373;52.334;4.806;2023-03-04T02:53:05;102458.94;;;16.36;45.69
77263;BME280;66373;52.334;4.806;2023-03-04T02:55:32;102436.19;;;16.18;45.68
77263;BME280;66373;52.334;4.806;2023-03-04T02:58:00;102477.19;;;16.45;45.85
77263;BME280;66373;52.334;4.806;2023-03-04T03:00:27;102531.28;;;16.77;45.65
77263;BME280;66373;52.334;4.806;2023-03-04T03:02:56;102535.66;;;16.81;45.67
77263;BME280;66373;52.334;4.806;2023-03-04T03:05:25;102540.03;;;16.83;45.79
77263;BME280;66373;52.334;4.806;2023-03-04T03:07:54;102484.22;;;16.54;45.81
77263;BME280;66373;52.334;4.806;2023-03-04T03:10:22;102481.59;;;16.51;45.58
77263;BME280;66373;52.334;4.806;2023-03-04T03:12:50;102553.03;;;16.85;45.76
77263;BME280;66373;52.334;4.806;2023-03-04T03:15:19;102538.25;;;16.81;45.73
77263;BME280;66373;52.334;4.806;2023-03-04T03:17:47;102479.78;;;16.45;45.81
77263;BME280;66373;52.334;4.806;2023-03-04T03:20:16;102518.13;;;16.65;45.72
77263;BME280;66373;52.334;4.806;2023-03-04T03:22:43;102431.03;;;16.20;45.61
77263;BME280;66373;52.334;4.806;2023-03-04T03:25:12;102458.03;;;16.34;45.74
77263;BME280;66373;52.334;4.806;2023-03-04T03:27:39;102471.91;;;16.39;45.62
77263;BME280;66373;52.334;4.806;2023-03-04T03:30:10;102546.94;;;16.81;45.42
77263;BME280;66373;52.334;4.806;2023-03-04T03:32:37;102526.03;;;16.74;45.65
77263;BME280;66373;52.334;4.806;2023-03-04T03:35:05;102516.47;;;16.70;45.67
77263;BME280;66373;52.334;4.806;2023-03-04T03:37:35;102450.13;;;16.25;45.60
77263;BME280;66373;52.334;4.806;2023-03-04T03:40:03;102511.19;;;16.62;45.59
77263;BME280;66373;52.334;4.806;2023-03-04T03:42:31;102499.00;;;16.58;45.26
77263;BME280;66373;52.334;4.806;2023-03-04T03:44:58;102514.66;;;16.62;45.58
77263;BME280;66373;52.334;4.806;2023-03-04T03:47:25;102459.78;;;16.35;45.68
77263;BME280;66373;52.334;4.806;2023-03-04T03:49:52;102547.72;;;16.74;45.55
77263;BME280;66373;52.334;4.806;2023-03-04T03:52:20;102545.13;;;16.76;45.61
77263;BME280;66373;52.334;4.806;2023-03-04T03:54:48;102524.22;;;16.67;45.54
77263;BME280;66373;52.334;4.806;2023-03-04T03:57:16;102524.22;;;16.65;45.57
77263;BME280;66373;52.334;4.806;2023-03-04T03:59:43;102497.19;;;16.52;45.69
77263;BME280;66373;52.334;4.806;2023-03-04T04:02:10;102461.50;;;16.35;45.36
77263;BME280;66373;52.334;4.806;2023-03-04T04:04:37;102500.66;;;16.53;45.66
77263;BME280;66373;52.334;4.806;2023-03-04T04:07:04;102454.44;;;16.23;45.53
77263;BME280;66373;52.334;4.806;2023-03-04T04:09:32;102523.38;;;16.68;45.58
77263;BME280;66373;52.334;4.806;2023-03-04T04:12:00;102518.13;;;16.65;45.51
77263;BME280;66373;52.334;4.806;2023-03-04T04:14:27;102454.41;;;16.21;45.73
77263;BME280;66373;52.334;4.806;2023-03-04T04:16:54;102493.66;;;16.47;45.64
77263;BME280;66373;52.334;4.806;2023-03-04T04:19:21;102457.03;;;16.23;45.57
77263;BME280;66373;52.334;4.806;2023-03-04T04:21:48;102525.03;;;16.62;45.45
77263;BME280;66373;52.334;4.806;2023-03-04T04:24:16;102531.13;;;16.65;45.41
77263;BME280;66373;52.334;4.806;2023-03-04T04:26:43;102529.47;;;16.70;45.43
77263;BME280;66373;52.334;4.806;2023-03-04T04:29:13;102480.59;;;16.41;45.33
77263;BME280;66373;52.334;4.806;2023-03-04T04:31:40;102514.59;;;16.58;45.44
77263;BME280;66373;52.334;4.806;2023-03-04T04:34:07;102384.72;;;15.85;45.62
77263;BME280;66373;52.334;4.806;2023-03-04T04:36:35;102419.56;;;16.03;45.65
77263;BME280;66373;52.334;4.806;2023-03-04T04:39:02;102493.72;;;16.50;45.51
77263;BME280;66373;52.334;4.806;2023-03-04T04:41:31;102392.50;;;15.82;45.48
77263;BME280;66373;52.334;4.806;2023-03-04T04:44:00;102512.00;;;16.58;45.43
77263;BME280;66373;52.334;4.806;2023-03-04T04:46:29;102413.47;;;15.99;45.58
77263;BME280;66373;52.334;4.806;2023-03-04T04:48:56;102450.00;;;16.16;45.58
77263;BME280;66373;52.334;4.806;2023-03-04T04:51:23;102463.97;;;16.24;45.38
77263;BME280;66373;52.334;4.806;2023-03-04T04:53:52;102385.53;;;15.78;45.54
77263;BME280;66373;52.334;4.806;2023-03-04T04:56:21;102538.03;;;16.62;45.69
77263;BME280;66373;52.334;4.806;2023-03-04T04:58:49;102462.22;;;16.23;45.73
77263;BME280;66373;52.334;4.806;2023-03-04T05:01:16;102418.69;;;16.01;45.68
77263;BME280;66373;52.334;4.806;2023-03-04T05:03:45;102524.91;;;16.53;45.45
77263;BME280;66373;52.334;4.806;2023-03-04T05:06:14;102452.59;;;16.16;45.54
77263;BME280;66373;52.334;4.806;2023-03-04T05:08:41;102477.88;;;16.29;45.46
77263;BME280;66373;52.334;4.806;2023-03-04T05:11:08;102504.84;;;16.42;45.35
77263;BME280;66373;52.334;4.806;2023-03-04T05:13:35;102512.66;;;16.43;45.54
77263;BME280;66373;52.334;4.806;2023-03-04T05:16:03;102457.78;;;16.14;45.44
77263;BME280;66373;52.334;4.806;2023-03-04T05:18:30;102465.53;;;16.11;45.50
77263;BME280;66373;52.334;4.806;2023-03-04T05:21:01;102437.69;;;16.00;45.64
77263;BME280;66373;52.334;4.806;2023-03-04T05:23:33;102456.81;;;16.05;45.45
77263;BME280;66373;52.334;4.806;2023-03-04T05:26:01;102476.00;;;16.17;45.46
77263;BME280;66373;52.334;4.806;2023-03-04T05:28:28;102536.19;;;16.54;45.39
77263;BME280;66373;52.334;4.806;2023-03-04T05:30:55;102468.97;;;16.09;45.34
77263;BME280;66373;52.334;4.806;2023-03-04T05:33:22;102509.97;;;16.34;45.54
77263;BME280;66373;52.334;4.806;2023-03-04T05:35:49;102483.72;;;16.14;45.59
77263;BME280;66373;52.334;4.806;2023-03-04T05:38:18;102497.81;;;16.30;45.34
77263;BME280;66373;52.334;4.806;2023-03-04T05:40:46;102415.88;;;15.84;45.38
77263;BME280;66373;52.334;4.806;2023-03-04T05:43:14;102453.34;;;16.06;45.43
77263;BME280;66373;52.334;4.806;2023-03-04T05:45:41;102432.31;;;15.84;45.45
77263;BME280;66373;52.334;4.806;2023-03-04T05:48:08;102466.38;;;16.12;45.47
77263;BME280;66373;52.334;4.806;2023-03-04T05:50:35;102525.63;;;16.42;45.27
77263;BME280;66373;52.334;4.806;2023-03-04T05:53:02;102496.94;;;16.31;45.22
77263;BME280;66373;52.334;4.806;2023-03-04T05:55:31;102424.53;;;15.86;45.39
77263;BME280;66373;52.334;4.806;2023-03-04T05:57:58;102501.25;;;16.29;45.36
77263;BME280;66373;52.334;4.806;2023-03-04T06:00:25;102464.66;;;16.09;45.45
77263;BME280;66373;52.334;4.806;2023-03-04T06:02:52;102436.72;;;15.91;45.45
77263;BME280;66373;52.334;4.806;2023-03-04T06:05:19;102453.31;;;16.03;45.49
77263;BME280;66373;52.334;4.806;2023-03-04T06:07:47;102460.34;;;16.13;45.37
77263;BME280;66373;52.334;4.806;2023-03-04T06:10:15;102456.81;;;16.05;45.34
77263;BME280;66373;52.334;4.806;2023-03-04T06:12:44;102512.56;;;16.37;45.32
77263;BME280;66373;52.334;4.806;2023-03-04T06:15:11;102493.47;;;16.29;45.41
77263;BME280;66373;52.334;4.806;2023-03-04T06:17:40;102454.16;;;16.02;45.47
77263;BME280;66373;52.334;4.806;2023-03-04T06:20:08;102500.34;;;16.27;45.56
77263;BME280;66373;52.334;4.806;2023-03-04T06:22:35;102510.84;;;16.35;45.50
77263;BME280;66373;52.334;4.806;2023-03-04T06:25:02;102515.19;;;16.39;45.31
77263;BME280;66373;52.334;4.806;2023-03-04T06:27:29;102526.44;;;16.36;45.46
77263;BME280;66373;52.334;4.806;2023-03-04T06:29:58;102444.41;;;15.82;45.44
77263;BME280;66373;52.334;4.806;2023-03-04T06:32:26;102482.81;;;16.08;45.55
77263;BME280;66373;52.334;4.806;2023-03-04T06:34:53;102434.03;;;15.82;45.42
77263;BME280;66373;52.334;4.806;2023-03-04T06:37:20;102508.09;;;16.24;45.66
77263;BME280;66373;52.334;4.806;2023-03-04T06:39:46;102437.41;;;15.77;45.33
77263;BME280;66373;52.334;4.806;2023-03-04T06:42:13;102494.94;;;16.09;45.49
77263;BME280;66373;52.334;4.806;2023-03-04T06:44:40;102430.47;;;15.76;45.48
77263;BME280;66373;52.334;4.806;2023-03-04T06:47:08;102521.97;;;16.26;45.54
77263;BME280;66373;52.334;4.806;2023-03-04T06:49:35;102508.88;;;16.17;45.22
77263;BME280;66373;52.334;4.806;2023-03-04T06:52:02;102475.72;;;15.98;45.50
77263;BME280;66373;52.334;4.806;2023-03-04T06:54:29;102500.09;;;16.06;45.37
77263;BME280;66373;52.334;4.806;2023-03-04T06:56:56;102436.47;;;15.72;45.39
77263;BME280;66373;52.334;4.806;2023-03-04T06:59:23;102519.28;;;16.20;45.55
77263;BME280;66373;52.334;4.806;2023-03-04T07:01:50;102489.59;;;16.00;45.51
77263;BME280;66373;52.334;4.806;2023-03-04T07:04:18;102459.13;;;15.83;45.42
77263;BME280;66373;52.334;4.806;2023-03-04T07:06:47;102468.72;;;15.90;45.28
77263;BME280;66373;52.334;4.806;2023-03-04T07:09:14;102456.53;;;15.86;45.52
77263;BME280;66373;52.334;4.806;2023-03-04T07:11:41;102466.03;;;15.86;45.41
77263;BME280;66373;52.334;4.806;2023-03-04T07:14:08;102538.53;;;16.33;45.37
77263;BME280;66373;52.334;4.806;2023-03-04T07:16:36;102480.88;;;15.94;45.28
77263;BME280;66373;52.334;4.806;2023-03-04T07:19:03;102451.25;;;15.77;45.47
77263;BME280;66373;52.334;4.806;2023-03-04T07:21:31;102496.53;;;16.01;45.42
77263;BME280;66373;52.334;4.806;2023-03-04T07:23:58;102537.53;;;16.24;45.34
77263;BME280;66373;52.334;4.806;2023-03-04T07:26:25;102554.97;;;16.33;45.32
77263;BME280;66373;52.334;4.806;2023-03-04T07:28:52;102492.16;;;15.97;45.45
77263;BME280;66373;52.334;4.806;2023-03-04T07:31:23;102542.66;;;16.20;45.54
77263;BME280;66373;52.334;4.806;2023-03-04T07:33:54;102487.75;;;15.91;45.40
77263;BME280;66373;52.334;4.806;2023-03-04T07:36:21;102526.09;;;16.12;45.43
77263;BME280;66373;52.334;4.806;2023-03-04T07:38:50;102554.88;;;16.27;45.37
77263;BME280;66373;52.334;4.806;2023-03-04T07:41:20;102451.94;;;15.67;45.42
77263;BME280;66373;52.334;4.806;2023-03-04T07:43:47;102442.38;;;15.63;45.26
77263;BME280;66373;52.334;4.806;2023-03-04T07:46:15;102544.38;;;16.19;45.47
77263;BME280;66373;52.334;4.806;2023-03-04T07:48:42;102469.44;;;15.79;45.50
77263;BME280;66373;52.334;4.806;2023-03-04T07:51:11;102502.47;;;15.92;45.50
77263;BME280;66373;52.334;4.806;2023-03-04T07:53:39;102487.66;;;15.83;45.42
77263;BME280;66373;52.334;4.806;2023-03-04T07:56:11;102557.38;;;16.21;45.38
77263;BME280;66373;52.334;4.806;2023-03-04T07:58:38;102486.75;;;15.80;45.35
77263;BME280;66373;52.334;4.806;2023-03-04T08:01:10;102575.69;;;16.30;45.58
77263;BME280;66373;52.334;4.806;2023-03-04T08:03:37;102453.56;;;15.60;45.42
77263;BME280;66373;52.334;4.806;2023-03-04T08:06:05;102544.22;;;16.06;45.46
77263;BME280;66373;52.334;4.806;2023-03-04T08:08:32;102525.94;;;16.00;45.37
77263;BME280;66373;52.334;4.806;2023-03-04T08:10:59;102508.50;;;15.89;45.59
77263;BME280;66373;52.334;4.806;2023-03-04T08:13:28;102473.50;;;15.63;45.42
77263;BME280;66373;52.334;4.806;2023-03-04T08:15:55;102531.09;;;15.97;45.41
77263;BME280;66373;52.334;4.806;2023-03-04T08:18:25;102506.69;;;15.85;45.52
77263;BME280;66373;52.334;4.806;2023-03-04T08:20:52;102496.31;;;15.82;45.47
77263;BME280;66373;52.334;4.806;2023-03-04T08:23:19;102500.63;;;15.83;45.42
77263;BME280;66373;52.334;4.806;2023-03-04T08:25:47;102567.78;;;16.22;45.42
77263;BME280;66373;52.334;4.806;2023-03-04T08:28:14;102586.09;;;16.30;45.63
77263;BME280;66373;52.334;4.806;2023-03-04T08:30:42;102523.25;;;15.93;45.71
77263;BME280;66373;52.334;4.806;2023-03-04T08:33:10;102571.34;;;16.27;45.50
77263;BME280;66373;52.334;4.806;2023-03-04T08:35:38;102546.88;;;16.10;45.59
77263;BME280;66373;52.334;4.806;2023-03-04T08:38:05;102504.16;;;15.88;45.47
77263;BME280;66373;52.334;4.806;2023-03-04T08:40:32;102560.00;;;16.22;45.78
77263;BME280;66373;52.334;4.806;2023-03-04T08:42:59;102521.56;;;15.95;45.55
77263;BME280;66373;52.334;4.806;2023-03-04T08:45:26;102484.13;;;15.78;45.63
77263;BME280;66373;52.334;4.806;2023-03-04T08:47:55;102505.00;;;15.87;45.59
77263;BME280;66373;52.334;4.806;2023-03-04T08:50:22;102530.25;;;15.99;45.64
77263;BME280;66373;52.334;4.806;2023-03-04T08:52:49;102475.34;;;15.70;45.62
77263;BME280;66373;52.334;4.806;2023-03-04T08:55:16;102553.78;;;16.10;45.48
77263;BME280;66373;52.334;4.806;2023-03-04T08:57:42;102569.56;;;16.25;45.69
77263;BME280;66373;52.334;4.806;2023-03-04T09:00:11;102551.22;;;16.13;45.56
77263;BME280;66373;52.334;4.806;2023-03-04T09:02:37;102488.50;;;15.81;45.43
77263;BME280;66373;52.334;4.806;2023-03-04T09:05:07;102529.44;;;16.02;45.45
77263;BME280;66373;52.334;4.806;2023-03-04T09:07:34;102496.31;;;15.85;45.62
77263;BME280;66373;52.334;4.806;2023-03-04T09:10:01;102483.97;;;15.69;45.35
77263;BME280;66373;52.334;4.806;2023-03-04T09:12:28;102530.31;;;16.02;45.48
77263;BME280;66373;52.334;4.806;2023-03-04T09:14:55;102486.78;;;15.81;45.65
77263;BME280;66373;52.334;4.806;2023-03-04T09:17:22;102491.91;;;15.78;45.62
77263;BME280;66373;52.334;4.806;2023-03-04T09:19:49;102477.25;;;15.80;45.75
77263;BME280;66373;52.334;4.806;2023-03-04T09:22:17;102553.91;;;16.19;45.68
77263;BME280;66373;52.334;4.806;2023-03-04T09:24:44;102461.47;;;15.67;45.67
77263;BME280;66373;52.334;4.806;2023-03-04T09:27:11;102554.78;;;16.19;48.25
77263;BME280;66373;52.334;4.806;2023-03-04T09:32:54;102511.31;;;16.05;48.20
77263;BME280;66373;52.334;4.806;2023-03-04T09:35:25;102582.78;;;16.42;47.62
77263;BME280;66373;52.334;4.806;2023-03-04T09:38:04;102449.31;;;15.64;47.28
77263;BME280;66373;52.334;4.806;2023-03-04T09:40:38;102581.03;;;16.42;46.89
77263;BME280;66373;52.334;4.806;2023-03-04T09:43:12;102537.44;;;16.18;46.69
77263;BME280;66373;52.334;4.806;2023-03-04T09:45:43;102541.94;;;16.30;46.86
77263;BME280;66373;52.334;4.806;2023-03-04T09:48:15;102545.47;;;16.35;46.57
77263;BME280;66373;52.334;4.806;2023-03-04T09:50:57;102447.75;;;15.75;46.39
77263;BME280;66373;52.334;4.806;2023-03-04T09:53:34;102517.50;;;16.16;46.29
77263;BME280;66373;52.334;4.806;2023-03-04T09:56:06;102541.06;;;16.29;45.83
77263;BME280;66373;52.334;4.806;2023-03-04T09:58:45;102559.41;;;16.42;45.64
77263;BME280;66373;52.334;4.806;2023-03-04T10:01:21;102477.34;;;15.89;45.59
77263;BME280;66373;52.334;4.806;2023-03-04T10:03:53;102519.25;;;16.17;45.89
77263;BME280;66373;52.334;4.806;2023-03-04T10:06:22;102459.00;;;15.76;45.90
77263;BME280;66373;52.334;4.806;2023-03-04T10:12:14;102487.88;;;16.00;45.75
77263;BME280;66373;52.334;4.806;2023-03-04T10:14:46;102459.97;;;15.82;45.94
77263;BME280;66373;52.334;4.806;2023-03-04T10:17:20;102560.25;;;16.41;45.67
77263;BME280;66373;52.334;4.806;2023-03-04T10:19:58;102519.25;;;16.17;45.71
77263;BME280;66373;52.334;4.806;2023-03-04T10:22:34;102478.28;;;15.94;45.75
77263;BME280;66373;52.334;4.806;2023-03-04T10:25:15;102505.34;;;16.12;45.85
77263;BME280;66373;52.334;4.806;2023-03-04T10:27:51;102426.91;;;15.69;45.74
77263;BME280;66373;52.334;4.806;2023-03-04T10:32:07;102550.78;;;16.44;45.73
77263;BME280;66373;52.334;4.806;2023-03-04T10:34:22;102566.34;;;16.44;45.92
77263;BME280;66373;52.334;4.806;2023-03-04T11:19:15;102544.81;;;16.51;46.03
77263;BME280;66373;52.334;4.806;2023-03-04T11:21:59;102517.81;;;16.40;45.93
77263;BME280;66373;52.334;4.806;2023-03-04T11:24:29;102418.41;;;15.79;46.00
77263;BME280;66373;52.334;4.806;2023-03-04T11:27:04;102523.09;;;16.46;45.81
77263;BME280;66373;52.334;4.806;2023-03-04T11:29:56;102462.06;;;16.12;45.93
77263;BME280;66373;52.334;4.806;2023-03-04T11:32:42;102544.03;;;16.58;45.70
77263;BME280;66373;52.334;4.806;2023-03-04T11:35:23;102489.19;;;16.33;45.87
77263;BME280;66373;52.334;4.806;2023-03-04T11:37:58;102493.53;;;16.34;46.01
77263;BME280;66373;52.334;4.806;2023-03-04T11:40:44;102465.63;;;16.19;46.08
77263;BME280;66373;52.334;4.806;2023-03-04T11:43:50;102511.81;;;16.46;46.19
77263;BME280;66373;52.334;4.806;2023-03-04T11:49:54;102527.56;;;16.58;46.33
77263;BME280;66373;52.334;4.806;2023-03-04T11:52:34;102443.09;;;16.18;46.02
77263;BME280;66373;52.334;4.806;2023-03-04T11:55:22;102494.47;;;16.43;46.17
77263;BME280;66373;52.334;4.806;2023-03-04T11:57:58;102460.50;;;16.25;46.12
77263;BME280;66373;52.334;4.806;2023-03-04T12:00:37;102518.19;;;16.69;46.05
77263;BME280;66373;52.334;4.806;2023-03-04T12:06:11;102403.19;;;16.07;46.27
77263;BME280;66373;52.334;4.806;2023-03-04T12:12:00;102500.00;;;16.69;46.35
77263;BME280;66373;52.334;4.806;2023-03-04T12:14:38;102427.72;;;16.33;46.68
77263;BME280;66373;52.334;4.806;2023-03-04T12:17:19;102456.50;;;16.51;46.45
77263;BME280;66373;52.334;4.806;2023-03-04T12:20:00;102470.38;;;16.53;46.20
77263;BME280;66373;52.334;4.806;2023-03-04T12:22:35;102499.25;;;16.78;46.56
77263;BME280;66373;52.334;4.806;2023-03-04T12:25:21;102423.44;;;16.40;46.36
77263;BME280;66373;52.334;4.806;2023-03-04T12:27:58;102473.19;;;16.73;46.46
77263;BME280;66373;52.334;4.806;2023-03-04T12:30:40;102473.22;;;16.75;46.54
77263;BME280;66373;52.334;4.806;2023-03-04T12:33:22;102468.00;;;16.72;46.33
77263;BME280;66373;52.334;4.806;2023-03-04T12:35:58;102455.84;;;16.69;46.31
77263;BME280;66373;52.334;4.806;2023-03-04T12:38:40;102428.81;;;16.53;46.43
77263;BME280;66373;52.334;4.806;2023-03-04T12:41:21;102450.69;;;16.74;46.42
77263;BME280;66373;52.334;4.806;2023-03-04T12:44:00;102436.78;;;16.69;46.34
77263;BME280;66373;52.334;4.806;2023-03-04T12:46:43;102449.06;;;16.83;46.22
77263;BME280;66373;52.334;4.806;2023-03-04T12:49:25;102457.78;;;16.93;46.30
77263;BME280;66373;52.334;4.806;2023-03-04T12:52:01;102419.50;;;16.74;46.27
77263;BME280;66373;52.334;4.806;2023-03-04T12:54:34;102445.66;;;16.92;46.35
77263;BME280;66373;52.334;4.806;2023-03-04T12:57:16;102387.34;;;16.62;46.27
77263;BME280;66373;52.334;4.806;2023-03-04T12:59:51;102466.59;;;17.07;46.18
77263;BME280;66373;52.334;4.806;2023-03-04T13:02:35;102342.09;;;16.41;46.03
77263;BME280;66373;52.334;4.806;2023-03-04T13:05:25;102393.50;;;16.71;46.09
77263;BME280;66373;52.334;4.806;2023-03-04T13:08:09;102348.25;;;16.50;45.88
77263;BME280;66373;52.334;4.806;2023-03-04T13:10:42;102391.81;;;16.77;46.05
77263;BME280;66373;52.334;4.806;2023-03-04T13:13:40;102409.25;;;16.89;45.85
77263;BME280;66373;52.334;4.806;2023-03-04T13:16:33;102401.41;;;16.84;46.06
77263;BME280;66373;52.334;4.806;2023-03-04T13:19:02;102330.88;;;16.46;45.97
77263;BME280;66373;52.334;4.806;2023-03-04T13:21:50;102346.59;;;16.58;45.94
77263;BME280;66373;52.334;4.806;2023-03-04T13:24:44;102447.63;;;17.20;45.89
77263;BME280;66373;52.334;4.806;2023-03-04T13:27:43;102435.50;;;17.22;45.86
77263;BME280;66373;52.334;4.806;2023-03-04T13:33:44;102436.41;;;17.26;45.87
77263;BME280;66373;52.334;4.806;2023-03-04T13:36:28;102372.88;;;16.92;45.82
77263;BME280;66373;52.334;4.806;2023-03-04T13:38:57;102419.91;;;17.22;45.58
77263;BME280;66373;52.334;4.806;2023-03-04T13:41:29;102363.34;;;16.88;45.58
77263;BME280;66373;52.334;4.806;2023-03-04T13:43:56;102441.66;;;17.30;45.65
77263;BME280;66373;52.334;4.806;2023-03-04T13:46:29;102364.19;;;16.90;45.74
77263;BME280;66373;52.334;4.806;2023-03-04T13:49:01;102363.31;;;16.85;45.35
77263;BME280;66373;52.334;4.806;2023-03-04T13:51:32;102372.09;;;17.04;45.62
77263;BME280;66373;52.334;4.806;2023-03-04T13:54:13;102372.94;;;16.98;45.41
77263;BME280;66373;52.334;4.806;2023-03-04T13:56:41;102364.28;;;16.99;45.60
77263;BME280;66373;52.334;4.806;2023-03-04T13:59:25;102433.03;;;17.42;45.56
77263;BME280;66373;52.334;4.806;2023-03-04T14:02:10;102411.31;;;17.33;45.53
77263;BME280;66373;52.334;4.806;2023-03-04T14:04:42;102356.50;;;17.04;45.41
77263;BME280;66373;52.334;4.806;2023-03-04T14:07:23;102405.28;;;17.37;45.54
77263;BME280;66373;52.334;4.806;2023-03-04T14:09:57;102386.97;;;17.24;45.44
77263;BME280;66373;52.334;4.806;2023-03-04T14:15:22;102432.25;;;17.51;45.39